createdAt,value
2023-01-20T00:01:00.582Z,9.61
2023-01-20T00:02:02.665Z,9.60
2023-01-20T00:03:04.224Z,9.65
2023-01-20T00:04:06.033Z,9.70
2023-01-20T00:05:08.148Z,9.77
2023-01-20T00:06:10.090Z,9.83
2023-01-20T00:07:11.633Z,9.81
2023-01-20T00:08:13.196Z,9.84
2023-01-20T00:09:16.964Z,9.86
2023-01-20T00:10:18.699Z,9.89
2023-01-20T00:11:21.069Z,9.93
2023-01-20T00:12:22.591Z,9.90
2023-01-20T00:13:24.339Z,9.93
2023-01-20T00:14:27.765Z,9.95
2023-01-20T00:15:29.280Z,9.98
2023-01-20T00:16:32.334Z,9.92
2023-01-20T00:17:33.944Z,9.90
2023-01-20T00:18:35.823Z,9.93
2023-01-20T00:19:37.339Z,9.95
2023-01-20T00:20:38.831Z,9.93
2023-01-20T00:21:41.275Z,9.92
2023-01-20T00:22:42.815Z,9.94
2023-01-20T00:23:45.317Z,9.99
2023-01-20T00:24:46.868Z,10.06
2023-01-20T00:25:48.395Z,10.05
2023-01-20T00:26:49.964Z,10.05
2023-01-20T00:27:55.122Z,10.08
2023-01-20T00:29:00.121Z,10.04
2023-01-20T00:30:01.700Z,10.02
2023-01-20T00:31:38.768Z,10.06
2023-01-20T00:32:44.943Z,10.16
2023-01-20T00:33:48.289Z,10.15
2023-01-20T00:34:49.815Z,10.18
2023-01-20T00:35:51.327Z,10.26
2023-01-20T00:36:52.886Z,10.29
2023-01-20T00:37:54.532Z,10.31
2023-01-20T00:38:56.061Z,10.32
2023-01-20T00:39:57.611Z,10.38
2023-01-20T00:40:59.511Z,10.46
2023-01-20T00:42:01.049Z,10.48
2023-01-20T00:43:02.608Z,10.54
2023-01-20T00:44:04.237Z,10.62
2023-01-20T00:45:06.301Z,10.72
2023-01-20T00:46:08.345Z,10.67
2023-01-20T00:47:09.905Z,10.73
2023-01-20T00:48:11.472Z,10.75
2023-01-20T00:49:13.358Z,10.66
2023-01-20T00:50:15.151Z,10.68
2023-01-20T00:51:16.744Z,10.68
2023-01-20T00:52:21.393Z,10.69
2023-01-20T00:53:22.948Z,10.74
2023-01-20T00:54:24.454Z,10.79
2023-01-20T00:55:26.011Z,10.79
2023-01-20T00:56:27.567Z,10.77
2023-01-20T00:57:29.141Z,10.67
2023-01-20T00:58:30.754Z,10.63
2023-01-20T00:59:32.322Z,10.59
2023-01-20T01:00:33.956Z,10.54
2023-01-20T01:01:35.619Z,10.53
2023-01-20T01:02:40.213Z,10.51
2023-01-20T01:03:41.840Z,10.45
2023-01-20T01:04:43.469Z,10.43
2023-01-20T01:05:45.913Z,10.42
2023-01-20T01:06:49.433Z,10.42
2023-01-20T01:07:50.965Z,10.44
2023-01-20T01:08:53.106Z,10.44
2023-01-20T01:09:54.670Z,10.40
2023-01-20T01:10:56.280Z,10.39
2023-01-20T01:11:58.053Z,10.35
2023-01-20T01:13:00.994Z,10.29
2023-01-20T01:14:02.517Z,10.29
2023-01-20T01:15:04.723Z,10.25
2023-01-20T01:16:11.858Z,10.18
2023-01-20T01:17:13.418Z,10.10
2023-01-20T01:18:15.032Z,10.07
2023-01-20T01:19:18.927Z,10.07
2023-01-20T01:20:20.546Z,10.06
2023-01-20T01:21:22.464Z,10.03
2023-01-20T01:22:24.129Z,10.02
2023-01-20T01:23:25.677Z,10.05
2023-01-20T01:24:27.300Z,10.01
2023-01-20T01:25:28.843Z,10.04
2023-01-20T01:26:30.456Z,10.05
2023-01-20T01:27:32.007Z,10.09
2023-01-20T01:28:33.554Z,10.06
2023-01-20T01:29:35.149Z,10.11
2023-01-20T01:30:36.736Z,10.13
2023-01-20T01:31:39.089Z,10.20
2023-01-20T01:32:40.726Z,10.18
2023-01-20T01:33:42.738Z,10.14
2023-01-20T01:34:44.307Z,10.10
2023-01-20T01:35:57.984Z,10.04
2023-01-20T01:36:59.675Z,9.92
2023-01-20T01:38:01.235Z,9.90
2023-01-20T01:39:03.043Z,9.90
2023-01-20T01:40:05.256Z,9.96
2023-01-20T01:41:06.968Z,9.95
2023-01-20T01:42:13.365Z,9.95
2023-01-20T01:43:32.867Z,9.96
2023-01-20T01:44:36.920Z,9.99
2023-01-20T01:45:38.674Z,10.02
2023-01-20T01:46:41.459Z,10.04
2023-01-20T01:47:48.456Z,10.09
2023-01-20T01:48:50.085Z,10.13
2023-01-20T01:49:52.262Z,10.06
2023-01-20T01:50:58.508Z,10.04
2023-01-20T01:52:03.528Z,10.05
2023-01-20T01:53:06.575Z,10.13
2023-01-20T01:54:30.046Z,10.10
2023-01-20T01:55:36.658Z,10.08
2023-01-20T01:56:40.125Z,10.05
2023-01-20T01:57:41.941Z,10.02
2023-01-20T01:58:48.804Z,10.02
2023-01-20T01:59:50.955Z,9.97
2023-01-20T02:00:53.025Z,9.95
2023-01-20T02:01:55.561Z,9.95
2023-01-20T02:02:57.942Z,9.95
2023-01-20T02:04:12.319Z,9.94
2023-01-20T02:05:16.318Z,9.92
2023-01-20T02:06:18.756Z,9.93
2023-01-20T02:07:22.018Z,9.92
2023-01-20T02:08:24.354Z,9.92
2023-01-20T02:09:27.518Z,9.94
2023-01-20T02:10:30.090Z,9.95
2023-01-20T02:11:38.022Z,9.93
2023-01-20T02:12:40.858Z,9.94
2023-01-20T02:13:42.508Z,9.93
2023-01-20T02:14:47.604Z,9.92
2023-01-20T02:16:20.682Z,9.91
2023-01-20T02:17:25.083Z,9.89
2023-01-20T02:18:49.650Z,9.89
2023-01-20T02:20:14.860Z,9.86
2023-01-20T02:21:30.592Z,9.90
2023-01-20T02:23:03.165Z,9.91
2023-01-20T02:24:17.930Z,9.89
2023-01-20T02:25:25.356Z,9.88
2023-01-20T02:26:45.540Z,9.88
2023-01-20T02:28:14.731Z,9.89
2023-01-20T02:29:41.186Z,9.91
2023-01-20T02:31:21.019Z,9.89
2023-01-20T02:32:28.538Z,9.89
2023-01-20T02:33:35.737Z,9.88
2023-01-20T02:35:03.570Z,9.84
2023-01-20T02:36:37.796Z,9.83
2023-01-20T02:38:17.646Z,9.76
2023-01-20T02:39:36.560Z,9.66
2023-01-20T02:41:03.341Z,9.55
2023-01-20T02:42:12.754Z,9.58
2023-01-20T02:43:14.223Z,9.54
2023-01-20T02:44:33.274Z,9.55
2023-01-20T02:45:49.869Z,9.54
2023-01-20T02:47:04.170Z,9.55
2023-01-20T02:48:22.423Z,9.52
2023-01-20T02:49:41.526Z,9.50
2023-01-20T02:51:05.383Z,9.46
2023-01-20T02:52:12.028Z,9.46
2023-01-20T02:53:15.251Z,9.44
2023-01-20T02:54:19.715Z,9.45
2023-01-20T02:55:33.856Z,9.44
2023-01-20T02:56:36.736Z,9.44
2023-01-20T02:57:52.206Z,9.46
2023-01-20T02:59:01.566Z,9.46
2023-01-20T03:00:09.524Z,9.49
2023-01-20T03:01:15.770Z,9.50
2023-01-20T03:02:24.474Z,9.53
2023-01-20T03:03:38.978Z,9.53
2023-01-20T03:05:17.004Z,9.48
2023-01-20T03:06:24.230Z,9.47
2023-01-20T03:07:29.550Z,9.45
2023-01-20T03:08:33.179Z,9.43
2023-01-20T03:09:40.652Z,9.43
2023-01-20T03:10:45.431Z,9.42
2023-01-20T03:11:57.536Z,9.44
2023-01-20T03:13:20.442Z,9.39
2023-01-20T03:14:22.335Z,9.40
2023-01-20T03:15:30.552Z,9.42
2023-01-20T03:16:32.613Z,9.44
2023-01-20T03:17:35.028Z,9.42
2023-01-20T03:18:37.845Z,9.37
2023-01-20T03:19:39.404Z,9.40
2023-01-20T03:20:40.988Z,9.43
2023-01-20T03:21:42.618Z,9.45
2023-01-20T03:22:44.239Z,9.46
2023-01-20T03:23:54.577Z,9.46
2023-01-20T03:24:57.882Z,9.45
2023-01-20T03:25:59.536Z,9.44
2023-01-20T03:27:01.170Z,9.40
2023-01-20T03:28:03.251Z,9.40
2023-01-20T03:29:11.627Z,9.37
2023-01-20T03:30:15.385Z,9.35
2023-01-20T03:31:20.179Z,9.32
2023-01-20T03:32:26.696Z,9.31
2023-01-20T03:33:28.316Z,9.28
2023-01-20T03:34:33.334Z,9.29
2023-01-20T03:35:35.004Z,9.26
2023-01-20T03:36:37.347Z,9.25
2023-01-20T03:37:39.079Z,9.21
2023-01-20T03:38:40.936Z,9.19
2023-01-20T03:39:42.563Z,9.17
2023-01-20T03:40:55.666Z,9.22
2023-01-20T03:42:31.800Z,9.23
2023-01-20T03:43:58.487Z,9.20
2023-01-20T03:45:06.027Z,9.20
2023-01-20T03:46:19.307Z,9.25
2023-01-20T03:47:48.422Z,9.22
2023-01-20T03:48:53.961Z,9.21
2023-01-20T03:50:21.506Z,9.13
2023-01-20T03:51:34.327Z,9.10
2023-01-20T03:52:49.032Z,9.06
2023-01-20T03:53:59.929Z,9.01
2023-01-20T03:55:07.236Z,8.97
2023-01-20T03:56:23.015Z,8.90
2023-01-20T03:57:35.311Z,8.90
2023-01-20T03:58:40.751Z,8.88
2023-01-20T03:59:45.661Z,8.86
2023-01-20T04:00:49.660Z,8.89
2023-01-20T04:01:53.501Z,8.87
2023-01-20T04:02:55.752Z,8.91
2023-01-20T04:03:58.141Z,8.93
2023-01-20T04:05:01.605Z,8.90
2023-01-20T04:06:05.990Z,8.91
2023-01-20T04:07:11.959Z,8.92
2023-01-20T04:08:16.321Z,9.01
2023-01-20T04:09:24.580Z,9.12
2023-01-20T04:10:30.317Z,9.23
2023-01-20T04:11:32.017Z,9.31
2023-01-20T04:12:33.595Z,9.38
2023-01-20T04:13:35.761Z,9.44
2023-01-20T04:14:37.544Z,9.40
2023-01-20T04:15:44.779Z,9.41
2023-01-20T04:16:55.633Z,9.52
2023-01-20T04:17:57.129Z,9.62
2023-01-20T04:18:58.684Z,9.71
2023-01-20T04:20:06.283Z,9.68
2023-01-20T04:21:13.602Z,9.54
2023-01-20T04:22:15.056Z,9.42
2023-01-20T04:23:32.540Z,9.40
2023-01-20T04:24:40.201Z,9.54
2023-01-20T04:25:42.108Z,9.64
2023-01-20T04:26:43.705Z,9.82
2023-01-20T04:27:45.283Z,9.88
2023-01-20T04:28:46.927Z,9.87
2023-01-20T04:29:48.455Z,9.91
2023-01-20T04:30:50.779Z,9.87
2023-01-20T04:32:01.990Z,9.82
2023-01-20T04:33:03.636Z,9.88
2023-01-20T04:34:05.939Z,9.85
2023-01-20T04:35:07.680Z,9.77
2023-01-20T04:36:09.776Z,9.72
2023-01-20T04:37:11.309Z,9.62
2023-01-20T04:38:12.850Z,9.53
2023-01-20T04:39:14.347Z,9.41
2023-01-20T04:40:16.156Z,9.21
2023-01-20T04:41:17.676Z,9.24
2023-01-20T04:42:19.307Z,9.29
2023-01-20T04:43:20.896Z,9.36
2023-01-20T04:44:22.515Z,9.35
2023-01-20T04:45:24.210Z,9.27
2023-01-20T04:46:26.717Z,9.12
2023-01-20T04:47:32.469Z,8.93
2023-01-20T04:48:33.995Z,8.77
2023-01-20T04:49:35.746Z,8.70
2023-01-20T04:50:41.202Z,8.74
2023-01-20T04:51:42.834Z,8.73
2023-01-20T04:52:44.660Z,8.68
2023-01-20T04:53:46.187Z,8.69
2023-01-20T04:54:47.711Z,8.65
2023-01-20T04:55:49.306Z,8.57
2023-01-20T04:56:51.169Z,8.49
2023-01-20T04:57:52.696Z,8.38
2023-01-20T04:58:54.203Z,8.30
2023-01-20T04:59:55.748Z,8.23
2023-01-20T05:00:57.300Z,8.19
2023-01-20T05:01:59.019Z,8.14
2023-01-20T05:03:02.491Z,8.16
2023-01-20T05:04:04.133Z,8.17
2023-01-20T05:05:05.892Z,8.17
2023-01-20T05:06:07.544Z,8.21
2023-01-20T05:07:09.451Z,8.25
2023-01-20T05:08:11.006Z,8.28
2023-01-20T05:09:16.435Z,8.29
2023-01-20T05:10:18.000Z,8.28
2023-01-20T05:11:19.880Z,8.30
2023-01-20T05:12:21.575Z,8.33
2023-01-20T05:13:26.056Z,8.37
2023-01-20T05:14:27.647Z,8.41
2023-01-20T05:15:29.275Z,8.47
2023-01-20T05:16:32.119Z,8.49
2023-01-20T05:17:33.683Z,8.49
2023-01-20T05:18:35.725Z,8.63
2023-01-20T05:19:37.328Z,8.66
2023-01-20T05:20:38.924Z,8.60
2023-01-20T05:21:41.239Z,8.60
2023-01-20T05:22:42.800Z,8.60
2023-01-20T05:23:44.352Z,8.63
2023-01-20T05:24:45.915Z,8.62
2023-01-20T05:25:53.667Z,8.63
2023-01-20T05:26:55.233Z,8.65
2023-01-20T05:27:56.762Z,8.66
2023-01-20T05:28:58.308Z,8.69
2023-01-20T05:29:59.851Z,8.74
2023-01-20T05:31:01.494Z,8.83
2023-01-20T05:32:03.355Z,8.90
2023-01-20T05:33:04.948Z,8.98
2023-01-20T05:34:06.593Z,9.03
2023-01-20T05:35:09.073Z,9.11
2023-01-20T05:36:11.842Z,9.16
2023-01-20T05:37:17.297Z,9.14
2023-01-20T05:38:18.930Z,9.12
2023-01-20T05:39:21.811Z,9.12
2023-01-20T05:40:23.387Z,9.06
2023-01-20T05:41:24.953Z,9.00
2023-01-20T05:42:26.443Z,8.96
2023-01-20T05:43:28.016Z,8.95
2023-01-20T05:44:29.514Z,8.95
2023-01-20T05:45:32.510Z,8.94
2023-01-20T05:46:34.210Z,8.96
2023-01-20T05:47:35.864Z,8.96
2023-01-20T05:48:37.472Z,8.93
2023-01-20T05:49:38.996Z,8.88
2023-01-20T05:50:40.576Z,8.87
2023-01-20T05:51:42.095Z,8.90
2023-01-20T05:52:43.622Z,8.94
2023-01-20T05:53:45.275Z,8.97
2023-01-20T05:54:46.838Z,8.97
2023-01-20T05:55:48.847Z,8.99
2023-01-20T05:56:50.391Z,8.99
2023-01-20T05:57:51.966Z,8.98
2023-01-20T05:58:56.530Z,9.10
2023-01-20T05:59:58.095Z,9.17
2023-01-20T06:01:07.453Z,9.25
2023-01-20T06:02:09.114Z,9.31
2023-01-20T06:03:10.642Z,9.35
2023-01-20T06:04:12.198Z,9.37
2023-01-20T06:05:14.187Z,9.38
2023-01-20T06:06:18.267Z,9.32
2023-01-20T06:07:19.865Z,9.36
2023-01-20T06:08:21.525Z,9.37
2023-01-20T06:09:23.078Z,9.41
2023-01-20T06:10:27.937Z,9.36
2023-01-20T06:11:29.544Z,9.37
2023-01-20T06:12:31.205Z,9.40
2023-01-20T06:13:32.782Z,9.46
2023-01-20T06:14:34.395Z,9.52
2023-01-20T06:15:35.904Z,9.57
2023-01-20T06:16:37.456Z,9.62
2023-01-20T06:17:38.979Z,9.62
2023-01-20T06:18:40.495Z,9.68
2023-01-20T06:19:42.067Z,9.74
2023-01-20T06:20:43.604Z,9.73
2023-01-20T06:21:47.027Z,9.75
2023-01-20T06:22:48.595Z,9.76
2023-01-20T06:23:50.248Z,9.73
2023-01-20T06:24:52.377Z,9.76
2023-01-20T06:26:02.264Z,9.81
2023-01-20T06:27:03.927Z,9.85
2023-01-20T06:28:05.465Z,9.89
2023-01-20T06:29:07.016Z,9.89
2023-01-20T06:30:09.318Z,9.84
2023-01-20T06:31:13.765Z,9.80
2023-01-20T06:32:15.377Z,9.80
2023-01-20T06:33:16.947Z,9.74
2023-01-20T06:34:18.504Z,9.69
2023-01-20T06:35:20.980Z,9.67
2023-01-20T06:36:23.011Z,9.67
2023-01-20T06:37:24.603Z,9.65
2023-01-20T06:38:29.048Z,9.60
2023-01-20T06:39:30.689Z,9.40
2023-01-20T06:40:32.335Z,9.30
2023-01-20T06:41:34.111Z,9.25
2023-01-20T06:42:35.623Z,9.20
2023-01-20T06:43:40.062Z,9.15
2023-01-20T06:44:41.720Z,9.08
2023-01-20T06:45:43.291Z,8.97
2023-01-20T06:46:46.745Z,8.93
2023-01-20T06:47:49.906Z,8.90
2023-01-20T06:48:51.560Z,8.92
2023-01-20T06:49:53.145Z,8.97
2023-01-20T06:51:00.731Z,8.96
2023-01-20T06:52:02.302Z,9.01
2023-01-20T06:53:04.066Z,9.02
2023-01-20T06:54:05.774Z,9.09
2023-01-20T06:55:07.707Z,9.20
2023-01-20T06:56:11.401Z,9.35
2023-01-20T06:57:12.974Z,9.47
2023-01-20T06:58:14.485Z,9.51
2023-01-20T06:59:16.012Z,9.53
2023-01-20T07:00:17.852Z,9.60
2023-01-20T07:01:28.108Z,9.69
2023-01-20T07:02:29.878Z,9.71
2023-01-20T07:03:31.511Z,9.74
2023-01-20T07:04:33.079Z,9.77
2023-01-20T07:05:34.609Z,9.78
2023-01-20T07:06:38.744Z,9.79
2023-01-20T07:07:40.413Z,9.86
2023-01-20T07:08:43.847Z,9.88
2023-01-20T07:09:45.378Z,9.83
2023-01-20T07:10:46.917Z,9.79
2023-01-20T07:11:48.535Z,9.74
2023-01-20T07:12:50.045Z,9.75
2023-01-20T07:13:51.579Z,9.77
2023-01-20T07:14:53.095Z,9.81
2023-01-20T07:15:54.649Z,9.82
2023-01-20T07:16:56.337Z,9.81
2023-01-20T07:17:58.282Z,9.87
2023-01-20T07:18:59.893Z,9.88
2023-01-20T07:20:01.455Z,9.90
2023-01-20T07:21:04.928Z,9.86
2023-01-20T07:22:06.511Z,9.85
2023-01-20T07:23:08.096Z,9.88
2023-01-20T07:24:09.910Z,9.79
2023-01-20T07:25:11.488Z,9.77
2023-01-20T07:26:16.766Z,9.64
2023-01-20T07:27:18.278Z,9.50
2023-01-20T07:28:19.828Z,9.44
2023-01-20T07:29:21.472Z,9.42
2023-01-20T07:30:23.323Z,9.43
2023-01-20T07:31:27.913Z,9.39
2023-01-20T07:32:30.995Z,9.35
2023-01-20T07:33:32.924Z,9.38
2023-01-20T07:34:34.641Z,9.33
2023-01-20T07:35:36.271Z,9.29
2023-01-20T07:36:37.784Z,9.31
2023-01-20T07:37:39.387Z,9.34
2023-01-20T07:38:41.562Z,9.30
2023-01-20T07:39:43.092Z,9.31
2023-01-20T07:40:44.636Z,9.30
2023-01-20T07:41:50.153Z,9.30
2023-01-20T07:42:52.232Z,9.23
2023-01-20T07:43:53.811Z,9.18
2023-01-20T07:44:55.380Z,9.14
2023-01-20T07:45:58.649Z,9.10
2023-01-20T07:47:00.174Z,9.11
2023-01-20T07:48:03.827Z,9.08
2023-01-20T07:49:05.414Z,9.07
2023-01-20T07:50:07.271Z,9.04
2023-01-20T07:51:11.582Z,9.06
2023-01-20T07:52:13.096Z,9.06
2023-01-20T07:53:14.655Z,9.07
2023-01-20T07:54:16.158Z,9.12
2023-01-20T07:55:17.755Z,9.18
2023-01-20T07:56:25.167Z,9.24
2023-01-20T07:57:30.132Z,9.32
2023-01-20T07:58:32.285Z,9.35
2023-01-20T07:59:33.867Z,9.31
2023-01-20T08:00:35.405Z,9.30
2023-01-20T08:01:37.072Z,9.32
2023-01-20T08:02:39.415Z,9.34
2023-01-20T08:03:41.319Z,9.28
2023-01-20T08:04:43.153Z,9.20
2023-01-20T08:05:44.757Z,9.16
2023-01-20T08:06:46.587Z,9.07
2023-01-20T08:07:52.205Z,9.03
2023-01-20T08:08:54.466Z,8.98
2023-01-20T08:09:56.040Z,8.97
2023-01-20T08:10:58.458Z,9.07
2023-01-20T08:12:00.212Z,8.98
2023-01-20T08:13:01.793Z,8.97
2023-01-20T08:14:03.383Z,8.99
2023-01-20T08:15:05.388Z,9.06
2023-01-20T08:16:09.746Z,9.17
2023-01-20T08:17:11.299Z,9.23
2023-01-20T08:18:12.869Z,9.34
2023-01-20T08:19:14.400Z,9.40
2023-01-20T08:20:17.648Z,9.47
2023-01-20T08:21:25.284Z,9.57
2023-01-20T08:22:26.837Z,9.65
2023-01-20T08:23:28.363Z,9.76
2023-01-20T08:24:30.028Z,9.81
2023-01-20T08:25:31.548Z,9.90
2023-01-20T08:26:33.920Z,9.95
2023-01-20T08:27:35.437Z,10.02
2023-01-20T08:28:37.077Z,10.07
2023-01-20T08:29:38.691Z,10.09
2023-01-20T08:30:40.305Z,10.13
2023-01-20T08:31:42.504Z,10.14
2023-01-20T08:32:44.077Z,10.18
2023-01-20T08:33:45.968Z,10.18
2023-01-20T08:34:47.608Z,10.23
2023-01-20T08:35:49.191Z,10.18
2023-01-20T08:36:53.175Z,10.22
2023-01-20T08:37:54.764Z,10.27
2023-01-20T08:38:58.294Z,10.24
2023-01-20T08:39:59.874Z,10.21
2023-01-20T08:41:01.844Z,10.24
2023-01-20T08:42:03.485Z,10.26
2023-01-20T08:43:04.996Z,10.30
2023-01-20T08:44:08.213Z,10.33
2023-01-20T08:45:10.221Z,10.38
2023-01-20T08:46:13.862Z,10.35
2023-01-20T08:47:15.474Z,10.32
2023-01-20T08:48:19.930Z,10.38
2023-01-20T08:49:23.451Z,10.41
2023-01-20T08:50:25.240Z,10.33
2023-01-20T08:51:30.237Z,10.19
2023-01-20T08:52:31.940Z,10.13
2023-01-20T08:53:34.435Z,10.15
2023-01-20T08:54:36.030Z,10.11
2023-01-20T08:55:37.545Z,9.87
2023-01-20T08:56:39.209Z,9.64
2023-01-20T08:57:41.266Z,9.63
2023-01-20T08:58:43.245Z,9.62
2023-01-20T08:59:46.790Z,9.57
2023-01-20T09:00:48.363Z,9.61
2023-01-20T09:01:49.909Z,9.71
2023-01-20T09:02:51.555Z,9.77
2023-01-20T09:04:04.833Z,9.82
2023-01-20T09:05:08.727Z,9.89
2023-01-20T09:06:11.375Z,9.95
2023-01-20T09:07:12.970Z,9.96
2023-01-20T09:08:15.374Z,9.87
2023-01-20T09:09:20.334Z,9.77
2023-01-20T09:10:21.884Z,9.74
2023-01-20T09:11:26.800Z,9.72
2023-01-20T09:12:28.367Z,9.65
2023-01-20T09:13:29.969Z,9.59
2023-01-20T09:14:31.578Z,9.59
2023-01-20T09:15:33.146Z,9.59
2023-01-20T09:16:34.757Z,9.60
2023-01-20T09:17:36.321Z,9.59
2023-01-20T09:18:37.840Z,9.55
2023-01-20T09:19:39.394Z,9.53
2023-01-20T09:20:40.896Z,9.47
2023-01-20T09:21:43.707Z,9.43
2023-01-20T09:22:45.287Z,9.47
2023-01-20T09:23:48.290Z,9.47
2023-01-20T09:24:49.854Z,9.48
2023-01-20T09:25:51.417Z,9.35
2023-01-20T09:26:53.380Z,9.31
2023-01-20T09:27:54.893Z,9.25
2023-01-20T09:28:56.442Z,9.30
2023-01-20T09:29:58.029Z,9.30
2023-01-20T09:31:05.704Z,9.30
2023-01-20T09:32:07.382Z,9.35
2023-01-20T09:33:13.075Z,9.41
2023-01-20T09:34:19.559Z,9.46
2023-01-20T09:35:21.500Z,9.56
2023-01-20T09:36:23.012Z,9.60
2023-01-20T09:37:43.094Z,9.63
2023-01-20T09:39:03.029Z,9.67
2023-01-20T09:40:23.183Z,9.71
2023-01-20T09:41:54.523Z,9.76
2023-01-20T09:43:56.237Z,9.72
2023-01-20T09:45:09.087Z,9.72
2023-01-20T09:46:16.291Z,9.71
2023-01-20T09:47:37.890Z,9.61
2023-01-20T09:48:58.156Z,9.50
2023-01-20T09:50:39.593Z,9.46
2023-01-20T09:52:39.160Z,9.49
2023-01-20T09:53:50.604Z,9.38
2023-01-20T09:55:00.357Z,9.35
2023-01-20T09:56:08.861Z,9.33
2023-01-20T09:57:12.833Z,9.38
2023-01-20T09:58:24.966Z,9.51
2023-01-20T10:00:00.455Z,9.50
2023-01-20T10:01:14.116Z,9.61
2023-01-20T10:02:24.715Z,9.64
2023-01-20T10:03:37.016Z,9.64
2023-01-20T10:04:43.916Z,9.72
2023-01-20T10:05:49.896Z,9.75
2023-01-20T10:07:24.206Z,9.57
2023-01-20T10:08:55.919Z,9.66
2023-01-20T10:10:28.578Z,9.77
2023-01-20T10:11:35.853Z,9.80
2023-01-20T10:13:06.519Z,9.67
2023-01-20T10:14:23.084Z,9.66
2023-01-20T10:15:36.641Z,9.64
2023-01-20T10:16:42.237Z,9.61
2023-01-20T10:17:57.921Z,9.51
2023-01-20T10:19:10.448Z,9.40
2023-01-20T10:20:17.759Z,9.33
2023-01-20T10:21:31.506Z,9.32
2023-01-20T10:22:42.750Z,9.34
2023-01-20T10:24:04.742Z,9.38
2023-01-20T10:25:15.246Z,9.45
2023-01-20T10:26:29.689Z,9.49
2023-01-20T10:27:33.333Z,9.51
2023-01-20T10:28:49.830Z,9.51
2023-01-20T10:30:03.796Z,9.53
2023-01-20T10:31:05.685Z,9.57
2023-01-20T10:32:33.499Z,9.54
2023-01-20T10:33:39.611Z,9.52
2023-01-20T10:34:45.632Z,9.49
2023-01-20T10:35:51.609Z,9.50
2023-01-20T10:37:03.452Z,9.37
2023-01-20T10:38:19.302Z,9.34
2023-01-20T10:39:35.055Z,9.24
2023-01-20T10:40:51.637Z,9.13
2023-01-20T10:42:01.903Z,9.03
2023-01-20T10:43:15.427Z,8.87
2023-01-20T10:44:17.059Z,8.91
2023-01-20T10:45:38.350Z,8.64
2023-01-20T10:47:07.953Z,8.33
2023-01-20T10:48:31.554Z,8.32
2023-01-20T10:49:45.649Z,8.32
2023-01-20T10:51:00.117Z,8.30
2023-01-20T10:52:08.008Z,8.28
2023-01-20T10:53:48.929Z,8.12
2023-01-20T10:55:28.273Z,7.95
2023-01-20T10:56:53.610Z,7.76
2023-01-20T10:58:01.512Z,7.64
2023-01-20T10:59:13.591Z,7.58
2023-01-20T11:00:28.779Z,7.51
2023-01-20T11:01:30.962Z,7.46
2023-01-20T11:02:35.459Z,7.36
2023-01-20T11:03:41.116Z,7.34
2023-01-20T11:04:43.475Z,7.35
2023-01-20T11:05:46.814Z,7.31
2023-01-20T11:06:58.717Z,7.33
2023-01-20T11:08:02.221Z,7.38
2023-01-20T11:09:20.921Z,7.39
2023-01-20T11:10:26.227Z,7.39
2023-01-20T11:11:29.646Z,7.39
2023-01-20T11:12:36.645Z,7.43
2023-01-20T11:13:38.436Z,7.46
2023-01-20T11:14:40.537Z,7.49
2023-01-20T11:15:46.530Z,7.51
2023-01-20T11:16:54.216Z,7.49
2023-01-20T11:18:14.053Z,7.43
2023-01-20T11:19:15.598Z,7.40
2023-01-20T11:20:20.846Z,7.40
2023-01-20T11:21:27.183Z,7.39
2023-01-20T11:22:37.597Z,7.36
2023-01-20T11:23:42.425Z,7.36
2023-01-20T11:24:45.514Z,7.32
2023-01-20T11:26:02.367Z,7.24
2023-01-20T11:27:14.097Z,7.12
2023-01-20T11:28:18.495Z,7.10
2023-01-20T11:29:19.977Z,7.03
2023-01-20T11:30:31.056Z,7.02
2023-01-20T11:31:41.760Z,7.01
2023-01-20T11:32:43.351Z,6.98
2023-01-20T11:34:15.161Z,6.92
2023-01-20T11:35:21.288Z,6.89
2023-01-20T11:36:24.135Z,6.85
2023-01-20T11:37:37.252Z,6.74
2023-01-20T11:38:44.646Z,6.71
2023-01-20T11:39:49.278Z,6.69
2023-01-20T11:40:54.957Z,6.68
2023-01-20T11:42:23.661Z,6.72
2023-01-20T11:43:35.559Z,6.70
2023-01-20T11:44:44.048Z,6.70
2023-01-20T11:45:45.596Z,6.73
2023-01-20T11:46:47.172Z,6.73
2023-01-20T11:48:16.244Z,6.73
2023-01-20T11:49:22.514Z,6.76
2023-01-20T11:50:35.198Z,6.71
2023-01-20T11:51:45.353Z,6.73
2023-01-20T11:52:47.456Z,6.77
2023-01-20T11:53:49.479Z,6.77
2023-01-20T11:55:12.668Z,6.79
2023-01-20T11:56:26.399Z,6.77
2023-01-20T11:57:27.952Z,6.80
2023-01-20T11:58:34.096Z,6.75
2023-01-20T11:59:46.328Z,6.72
2023-01-20T12:00:51.545Z,6.67
2023-01-20T12:02:01.578Z,6.67
2023-01-20T12:03:18.226Z,6.64
2023-01-20T12:04:23.400Z,6.67
2023-01-20T12:05:39.490Z,6.66
2023-01-20T12:07:10.500Z,6.74
2023-01-20T12:08:17.728Z,6.79
2023-01-20T12:09:25.940Z,6.84
2023-01-20T12:10:32.302Z,6.87
2023-01-20T12:11:38.338Z,6.88
2023-01-20T12:12:45.388Z,6.87
2023-01-20T12:14:20.868Z,6.89
2023-01-20T12:15:25.583Z,6.91
2023-01-20T12:16:30.812Z,6.95
2023-01-20T12:18:08.196Z,6.97
2023-01-20T12:19:18.008Z,6.97
2023-01-20T12:20:42.361Z,7.01
2023-01-20T12:21:53.287Z,7.09
2023-01-20T12:23:14.180Z,7.11
2023-01-20T12:24:56.719Z,7.02
2023-01-20T12:26:02.474Z,7.08
2023-01-20T12:27:04.155Z,7.08
2023-01-20T12:28:15.323Z,7.06
2023-01-20T12:29:38.234Z,7.05
2023-01-20T12:30:45.766Z,7.06
2023-01-20T12:31:49.229Z,7.09
2023-01-20T12:32:51.073Z,7.14
2023-01-20T12:34:11.490Z,7.20
2023-01-20T12:35:14.959Z,7.22
2023-01-20T12:36:33.294Z,7.26
2023-01-20T12:38:18.185Z,7.29
2023-01-20T12:39:47.594Z,7.29
2023-01-20T12:40:53.044Z,7.29
2023-01-20T12:42:31.215Z,7.32
2023-01-20T12:43:51.822Z,7.33
2023-01-20T12:44:59.119Z,7.31
2023-01-20T12:46:23.599Z,7.29
2023-01-20T12:48:03.642Z,7.37
2023-01-20T12:49:27.796Z,7.40
2023-01-20T12:50:51.946Z,7.42
2023-01-20T12:52:13.275Z,7.46
2023-01-20T12:53:17.863Z,7.49
2023-01-20T12:54:48.769Z,7.50
2023-01-20T12:56:13.755Z,7.58
2023-01-20T12:57:18.122Z,7.65
2023-01-20T12:58:43.288Z,7.68
2023-01-20T13:00:15.060Z,7.69
2023-01-20T13:01:25.920Z,7.75
2023-01-20T13:02:37.746Z,7.80
2023-01-20T13:04:01.574Z,7.89
2023-01-20T13:05:21.863Z,7.92
2023-01-20T13:06:27.711Z,7.96
2023-01-20T13:07:57.116Z,8.02
2023-01-20T13:09:19.947Z,8.02
2023-01-20T13:10:39.666Z,8.00
2023-01-20T13:12:07.140Z,7.84
2023-01-20T13:13:27.654Z,7.75
2023-01-20T13:14:43.134Z,7.70
2023-01-20T13:16:31.312Z,7.72
2023-01-20T13:17:58.952Z,7.66
2023-01-20T13:19:12.151Z,7.71
2023-01-20T13:20:25.233Z,7.72
2023-01-20T13:21:27.220Z,7.76
2023-01-20T13:22:30.150Z,7.75
2023-01-20T13:23:35.627Z,7.77
2023-01-20T13:24:41.416Z,7.84
2023-01-20T13:25:45.715Z,7.83
2023-01-20T13:26:49.143Z,7.89
2023-01-20T13:27:54.382Z,7.92
2023-01-20T13:28:57.439Z,7.91
2023-01-20T13:30:03.046Z,7.92
2023-01-20T13:31:33.261Z,7.97
2023-01-20T13:32:36.681Z,8.01
2023-01-20T13:33:42.203Z,8.05
2023-01-20T13:34:43.851Z,8.10
2023-01-20T13:35:50.366Z,8.18
2023-01-20T13:37:03.907Z,8.17
2023-01-20T13:38:24.021Z,8.16
2023-01-20T13:39:33.203Z,8.26
2023-01-20T13:40:38.091Z,8.28
2023-01-20T13:41:51.643Z,8.19
2023-01-20T13:42:53.970Z,8.20
2023-01-20T13:43:55.637Z,8.17
2023-01-20T13:45:12.604Z,8.22
2023-01-20T13:46:17.681Z,8.25
2023-01-20T13:47:49.074Z,8.29
2023-01-20T13:49:14.006Z,8.33
2023-01-20T13:50:25.457Z,8.38
2023-01-20T13:51:26.980Z,8.38
2023-01-20T13:52:50.562Z,8.39
2023-01-20T13:53:52.322Z,8.38
2023-01-20T13:54:54.055Z,8.41
2023-01-20T13:55:57.566Z,8.48
2023-01-20T13:57:23.291Z,8.51
2023-01-20T13:58:34.926Z,8.49
2023-01-20T13:59:37.443Z,8.49
2023-01-20T14:00:39.011Z,8.61
2023-01-20T14:01:40.586Z,8.70
2023-01-20T14:02:42.236Z,8.82
2023-01-20T14:03:44.074Z,8.93
2023-01-20T14:04:46.472Z,9.00
2023-01-20T14:05:59.743Z,9.15
2023-01-20T14:07:04.587Z,9.29
2023-01-20T14:08:15.164Z,9.38
2023-01-20T14:09:21.586Z,9.47
2023-01-20T14:10:23.668Z,9.54
2023-01-20T14:11:27.612Z,9.61
2023-01-20T14:12:29.269Z,9.65
2023-01-20T14:13:30.859Z,9.67
2023-01-20T14:14:32.658Z,9.73
2023-01-20T14:15:37.658Z,9.68
2023-01-20T14:16:41.784Z,9.63
2023-01-20T14:17:43.328Z,9.61
2023-01-20T14:18:44.995Z,9.60
2023-01-20T14:19:49.382Z,9.61
2023-01-20T14:21:03.597Z,9.65
2023-01-20T14:22:23.615Z,9.63
2023-01-20T14:23:28.505Z,9.65
2023-01-20T14:24:31.198Z,9.64
2023-01-20T14:25:32.711Z,9.58
2023-01-20T14:26:34.263Z,9.53
2023-01-20T14:27:41.855Z,9.43
2023-01-20T14:28:46.697Z,9.33
2023-01-20T14:29:51.361Z,9.20
2023-01-20T14:31:16.459Z,9.07
2023-01-20T14:32:28.451Z,8.97
2023-01-20T14:33:30.696Z,8.93
2023-01-20T14:34:33.118Z,8.87
2023-01-20T14:35:35.044Z,8.78
2023-01-20T14:36:36.680Z,8.74
2023-01-20T14:37:39.231Z,8.65
2023-01-20T14:38:56.143Z,8.60
2023-01-20T14:40:18.484Z,8.51
2023-01-20T14:41:30.805Z,8.47
2023-01-20T14:42:32.423Z,8.44
2023-01-20T14:43:33.992Z,8.36
2023-01-20T14:44:35.653Z,8.31
2023-01-20T14:45:37.744Z,8.26
2023-01-20T14:46:39.812Z,8.24
2023-01-20T14:47:41.444Z,8.22